Accueil
METAR-TAF:

METAR-TAF

Aéroports :

Aéroport de Karlsruhe-Baden-Baden

Baden-Baden, Allemagne

latitude: 48-46-43N, longitude: 008-04-47E, altitude: 124 m

Observation

Le bulletin a été fait il y a 23 minutes, à 19:50 UTC
Vent 7 kt de nord-est
Température 12°C
Humidité 88%
Pression 1023 hPa
Visibilité: 7000 m

METAR: EDSB 191950Z 04007KT 7000 NSC 12/10 Q1023

Heure: 22:13 (20:13 UTC)

Prévision

Le bulletin a été fait il y a 3 heures et 13 minutes, à 17:00 UTC
Prévision valable du 19 à 18 UTC au 20 à 18 UTC
Vent 6 kt de nord/nord-est
Visibilité: 9000 m
Temporairement
du 20 à 03 UTC au 20 à 09 UTC
Visibilité: 2500 m
brume

TAF: EDSB 191700Z 1918/2018 03006KT 9000 NSC TEMPO 2003/2009 2500 BR

Observations et prévisions météorologiques de plus de 4000 aéroports (messages METAR et TAF).

Les stations disponibles sont représentées par des disques jaunes et rouges sur la carte.

Passer la souris dessus pour voir le nom de la station.

Cliquer dessus pour voir les observations et prévisions météorologiques.

Pour changer de carte: cliquez sur les boutons verts avec une croix noire pour zoomer, sur le bouton vert avec un tiret pour effectuer un zoom arrière, ou sur les flèches vertes pour les cartes adjacentes.


METAR-TAF: